首页
METAR-TAF:

METAR-TAF

机场 :

何塞·马蒂国际机场

哈瓦那, 古巴

纬度: 22-59N, 经度: 082-24W, 海拔: 59米

当前天气观测

该预报发布于41分钟前的17:50 UTC
风速6节,风向
温度 32°C
湿度 63%
气压 1017 hPa
能見度: 9000
散云层高于3000英尺

METAR: MUHA 151750Z 35006KT 9000 SCT030 32/24 Q1017

时间: 14:31 (18:31 UTC)

预报

该预报发布于1小时和31分钟前的17:00 UTC
预报有效从15日的 18点(UTC)到 16日的 18点(UTC)
风速10节,风向北转东北
能見度: 9000
散云层高于3000英尺
短暂存在
从 15日的 19点(UTC)到 15日的 24点(UTC)
能見度: 4000
散云层高于1800英尺, 积雨云.
多云层高于2000英尺
雷暴, 雨
成为
从 16日的 02点(UTC)到 16日的 04点(UTC)
风速5节,风向多变
成为
从 16日的 11点(UTC)到 16日的 13点(UTC)
风速10节,风向东转东北

TAF: MUHA 151700Z 1518/1618 03010KT 9000 SCT030 TEMPO 1519/1524 4000 TSRA SCT018CB BKN020 BECMG 1602/1604 VRB05KT BECMG 1611/1613 06010KT

超过4000个机场的气象观测和天气预报(METAR&TAF报告)。

可查询的气象台以黄色和红色小点在地图上表示。

将鼠标移到小点上方,可查看气象台名称。

然后点击查看天气观测和预报。

如需切换地图:点击带黑十字的绿色按钮放大地图;点击带横线的绿色按钮缩小地图;或者点击绿色箭头查看邻近地区的地图。


METAR-TAF: